sensor_id;sensor_type;location;lat;lon;timestamp;P1;durP1;ratioP1;P2;durP2;ratioP2
10277;SDS011;5184;51.376;7.148;2023-02-15T00:00:31;24.07;;;16.53;;
10277;SDS011;5184;51.376;7.148;2023-02-15T00:02:57;23.47;;;16.57;;
10277;SDS011;5184;51.376;7.148;2023-02-15T00:05:24;24.57;;;15.97;;
10277;SDS011;5184;51.376;7.148;2023-02-15T00:07:51;25.47;;;16.23;;
10277;SDS011;5184;51.376;7.148;2023-02-15T00:10:18;23.80;;;15.17;;
10277;SDS011;5184;51.376;7.148;2023-02-15T00:12:45;23.17;;;15.80;;
10277;SDS011;5184;51.376;7.148;2023-02-15T00:15:11;24.70;;;16.30;;
10277;SDS011;5184;51.376;7.148;2023-02-15T00:17:38;23.00;;;15.90;;
10277;SDS011;5184;51.376;7.148;2023-02-15T00:20:05;23.47;;;16.43;;
10277;SDS011;5184;51.376;7.148;2023-02-15T00:22:33;26.37;;;17.77;;
10277;SDS011;5184;51.376;7.148;2023-02-15T00:24:59;23.87;;;16.60;;
10277;SDS011;5184;51.376;7.148;2023-02-15T00:27:26;26.00;;;17.50;;
10277;SDS011;5184;51.376;7.148;2023-02-15T00:29:52;24.67;;;16.47;;
10277;SDS011;5184;51.376;7.148;2023-02-15T00:32:19;23.30;;;16.40;;
10277;SDS011;5184;51.376;7.148;2023-02-15T00:34:46;25.73;;;17.33;;
10277;SDS011;5184;51.376;7.148;2023-02-15T00:37:13;25.63;;;16.70;;
10277;SDS011;5184;51.376;7.148;2023-02-15T00:39:40;28.20;;;18.10;;
10277;SDS011;5184;51.376;7.148;2023-02-15T00:42:08;26.20;;;17.27;;
10277;SDS011;5184;51.376;7.148;2023-02-15T00:44:34;27.23;;;17.30;;
10277;SDS011;5184;51.376;7.148;2023-02-15T00:47:01;23.23;;;16.30;;
10277;SDS011;5184;51.376;7.148;2023-02-15T00:49:28;25.93;;;16.27;;
10277;SDS011;5184;51.376;7.148;2023-02-15T00:51:54;27.30;;;16.47;;
10277;SDS011;5184;51.376;7.148;2023-02-15T00:54:21;28.25;;;17.27;;
10277;SDS011;5184;51.376;7.148;2023-02-15T00:56:48;25.50;;;16.83;;
10277;SDS011;5184;51.376;7.148;2023-02-15T00:59:15;26.90;;;17.77;;
10277;SDS011;5184;51.376;7.148;2023-02-15T01:01:41;26.60;;;17.30;;
10277;SDS011;5184;51.376;7.148;2023-02-15T01:04:08;26.03;;;17.50;;
10277;SDS011;5184;51.376;7.148;2023-02-15T01:06:35;25.57;;;16.53;;
10277;SDS011;5184;51.376;7.148;2023-02-15T01:09:02;26.03;;;17.10;;
10277;SDS011;5184;51.376;7.148;2023-02-15T01:11:29;28.10;;;17.73;;
10277;SDS011;5184;51.376;7.148;2023-02-15T01:13:56;26.90;;;18.13;;
10277;SDS011;5184;51.376;7.148;2023-02-15T01:16:22;29.83;;;18.80;;
10277;SDS011;5184;51.376;7.148;2023-02-15T01:18:49;26.50;;;17.83;;
10277;SDS011;5184;51.376;7.148;2023-02-15T01:21:18;26.23;;;17.17;;
10277;SDS011;5184;51.376;7.148;2023-02-15T01:23:44;28.63;;;18.37;;
10277;SDS011;5184;51.376;7.148;2023-02-15T01:26:10;28.57;;;19.27;;
10277;SDS011;5184;51.376;7.148;2023-02-15T01:28:37;33.40;;;20.07;;
10277;SDS011;5184;51.376;7.148;2023-02-15T01:31:05;31.20;;;20.17;;
10277;SDS011;5184;51.376;7.148;2023-02-15T01:33:32;29.00;;;19.60;;
10277;SDS011;5184;51.376;7.148;2023-02-15T01:35:59;29.23;;;19.87;;
10277;SDS011;5184;51.376;7.148;2023-02-15T01:38:25;29.90;;;18.53;;
10277;SDS011;5184;51.376;7.148;2023-02-15T01:40:52;30.13;;;18.77;;
10277;SDS011;5184;51.376;7.148;2023-02-15T01:43:18;29.83;;;18.57;;
10277;SDS011;5184;51.376;7.148;2023-02-15T01:45:46;29.40;;;19.17;;
10277;SDS011;5184;51.376;7.148;2023-02-15T01:48:22;27.10;;;18.33;;
10277;SDS011;5184;51.376;7.148;2023-02-15T01:50:53;27.57;;;18.63;;
10277;SDS011;5184;51.376;7.148;2023-02-15T01:53:22;30.70;;;18.67;;
10277;SDS011;5184;51.376;7.148;2023-02-15T01:55:52;31.23;;;19.30;;
10277;SDS011;5184;51.376;7.148;2023-02-15T01:58:16;30.87;;;19.47;;
10277;SDS011;5184;51.376;7.148;2023-02-15T02:00:43;31.43;;;19.47;;
10277;SDS011;5184;51.376;7.148;2023-02-15T02:03:10;30.27;;;19.87;;
10277;SDS011;5184;51.376;7.148;2023-02-15T02:05:38;35.20;;;19.83;;
10277;SDS011;5184;51.376;7.148;2023-02-15T02:08:05;31.27;;;19.50;;
10277;SDS011;5184;51.376;7.148;2023-02-15T02:10:32;31.50;;;19.93;;
10277;SDS011;5184;51.376;7.148;2023-02-15T02:12:59;32.27;;;19.87;;
10277;SDS011;5184;51.376;7.148;2023-02-15T02:15:29;29.97;;;19.30;;
10277;SDS011;5184;51.376;7.148;2023-02-15T02:18:14;29.27;;;18.57;;
10277;SDS011;5184;51.376;7.148;2023-02-15T02:20:44;26.73;;;17.47;;
10277;SDS011;5184;51.376;7.148;2023-02-15T02:23:13;28.50;;;18.90;;
10277;SDS011;5184;51.376;7.148;2023-02-15T02:25:45;31.23;;;18.93;;
10277;SDS011;5184;51.376;7.148;2023-02-15T02:32:11;30.13;;;18.77;;
10277;SDS011;5184;51.376;7.148;2023-02-15T02:39:21;32.33;;;19.63;;
10277;SDS011;5184;51.376;7.148;2023-02-15T02:42:10;31.83;;;19.30;;
10277;SDS011;5184;51.376;7.148;2023-02-15T02:44:40;29.37;;;19.13;;
10277;SDS011;5184;51.376;7.148;2023-02-15T02:47:29;32.77;;;19.30;;
10277;SDS011;5184;51.376;7.148;2023-02-15T02:49:59;32.00;;;19.20;;
10277;SDS011;5184;51.376;7.148;2023-02-15T02:54:58;35.23;;;20.67;;
10277;SDS011;5184;51.376;7.148;2023-02-15T02:57:24;32.23;;;19.60;;
10277;SDS011;5184;51.376;7.148;2023-02-15T02:59:51;34.97;;;20.93;;
10277;SDS011;5184;51.376;7.148;2023-02-15T03:02:21;35.93;;;20.90;;
10277;SDS011;5184;51.376;7.148;2023-02-15T03:04:47;36.10;;;19.87;;
10277;SDS011;5184;51.376;7.148;2023-02-15T03:07:15;35.07;;;21.33;;
10277;SDS011;5184;51.376;7.148;2023-02-15T03:09:42;32.27;;;20.43;;
10277;SDS011;5184;51.376;7.148;2023-02-15T03:12:10;33.17;;;20.10;;
10277;SDS011;5184;51.376;7.148;2023-02-15T03:14:38;33.23;;;19.73;;
10277;SDS011;5184;51.376;7.148;2023-02-15T03:17:05;34.77;;;20.80;;
10277;SDS011;5184;51.376;7.148;2023-02-15T03:19:32;32.70;;;20.43;;
10277;SDS011;5184;51.376;7.148;2023-02-15T03:22:00;33.53;;;20.47;;
10277;SDS011;5184;51.376;7.148;2023-02-15T03:24:34;33.70;;;20.67;;
10277;SDS011;5184;51.376;7.148;2023-02-15T03:27:02;33.00;;;19.57;;
10277;SDS011;5184;51.376;7.148;2023-02-15T03:29:27;34.27;;;20.60;;
10277;SDS011;5184;51.376;7.148;2023-02-15T03:31:56;32.47;;;20.47;;
10277;SDS011;5184;51.376;7.148;2023-02-15T03:34:22;36.10;;;21.47;;
10277;SDS011;5184;51.376;7.148;2023-02-15T03:36:51;31.07;;;19.07;;
10277;SDS011;5184;51.376;7.148;2023-02-15T03:39:20;31.93;;;20.57;;
10277;SDS011;5184;51.376;7.148;2023-02-15T03:41:57;32.43;;;21.37;;
10277;SDS011;5184;51.376;7.148;2023-02-15T03:44:45;32.97;;;21.07;;
10277;SDS011;5184;51.376;7.148;2023-02-15T03:47:08;32.73;;;20.13;;
10277;SDS011;5184;51.376;7.148;2023-02-15T03:49:39;33.20;;;21.57;;
10277;SDS011;5184;51.376;7.148;2023-02-15T03:52:05;33.93;;;21.50;;
10277;SDS011;5184;51.376;7.148;2023-02-15T03:54:32;34.43;;;21.07;;
10277;SDS011;5184;51.376;7.148;2023-02-15T03:57:05;38.70;;;21.80;;
10277;SDS011;5184;51.376;7.148;2023-02-15T03:59:36;32.83;;;19.93;;
10277;SDS011;5184;51.376;7.148;2023-02-15T04:02:12;36.07;;;21.53;;
10277;SDS011;5184;51.376;7.148;2023-02-15T04:04:40;33.73;;;19.20;;
10277;SDS011;5184;51.376;7.148;2023-02-15T04:07:06;36.20;;;21.33;;
10277;SDS011;5184;51.376;7.148;2023-02-15T04:09:32;34.27;;;21.00;;
10277;SDS011;5184;51.376;7.148;2023-02-15T04:12:04;33.93;;;19.97;;
10277;SDS011;5184;51.376;7.148;2023-02-15T04:14:32;37.17;;;22.00;;
10277;SDS011;5184;51.376;7.148;2023-02-15T04:17:06;36.37;;;21.97;;
10277;SDS011;5184;51.376;7.148;2023-02-15T04:19:32;36.53;;;20.53;;
10277;SDS011;5184;51.376;7.148;2023-02-15T04:22:05;32.80;;;20.73;;
10277;SDS011;5184;51.376;7.148;2023-02-15T04:24:38;35.37;;;21.20;;
10277;SDS011;5184;51.376;7.148;2023-02-15T04:27:10;34.27;;;21.07;;
10277;SDS011;5184;51.376;7.148;2023-02-15T04:29:37;35.47;;;20.97;;
10277;SDS011;5184;51.376;7.148;2023-02-15T04:32:05;36.00;;;21.57;;
10277;SDS011;5184;51.376;7.148;2023-02-15T04:34:31;36.27;;;21.40;;
10277;SDS011;5184;51.376;7.148;2023-02-15T04:36:58;34.97;;;21.37;;
10277;SDS011;5184;51.376;7.148;2023-02-15T04:39:25;35.97;;;21.87;;
10277;SDS011;5184;51.376;7.148;2023-02-15T04:41:51;35.97;;;21.67;;
10277;SDS011;5184;51.376;7.148;2023-02-15T04:44:19;38.00;;;23.07;;
10277;SDS011;5184;51.376;7.148;2023-02-15T04:46:45;37.20;;;22.27;;
10277;SDS011;5184;51.376;7.148;2023-02-15T04:49:12;34.57;;;22.40;;
10277;SDS011;5184;51.376;7.148;2023-02-15T04:51:38;37.30;;;23.57;;
10277;SDS011;5184;51.376;7.148;2023-02-15T04:54:06;35.30;;;22.37;;
10277;SDS011;5184;51.376;7.148;2023-02-15T04:56:34;36.90;;;22.57;;
10277;SDS011;5184;51.376;7.148;2023-02-15T04:59:00;36.40;;;21.10;;
10277;SDS011;5184;51.376;7.148;2023-02-15T05:01:27;31.50;;;20.23;;
10277;SDS011;5184;51.376;7.148;2023-02-15T05:03:54;40.30;;;23.83;;
10277;SDS011;5184;51.376;7.148;2023-02-15T05:06:20;41.33;;;24.33;;
10277;SDS011;5184;51.376;7.148;2023-02-15T05:08:47;37.90;;;23.37;;
10277;SDS011;5184;51.376;7.148;2023-02-15T05:11:18;37.30;;;23.20;;
10277;SDS011;5184;51.376;7.148;2023-02-15T05:13:45;37.17;;;22.50;;
10277;SDS011;5184;51.376;7.148;2023-02-15T05:16:12;34.20;;;21.80;;
10277;SDS011;5184;51.376;7.148;2023-02-15T05:18:38;38.93;;;23.13;;
10277;SDS011;5184;51.376;7.148;2023-02-15T05:21:06;39.47;;;23.60;;
10277;SDS011;5184;51.376;7.148;2023-02-15T05:23:33;39.37;;;23.60;;
10277;SDS011;5184;51.376;7.148;2023-02-15T05:26:00;38.20;;;22.53;;
10277;SDS011;5184;51.376;7.148;2023-02-15T05:28:32;35.30;;;22.53;;
10277;SDS011;5184;51.376;7.148;2023-02-15T05:31:02;39.20;;;23.40;;
10277;SDS011;5184;51.376;7.148;2023-02-15T05:33:29;39.17;;;23.53;;
10277;SDS011;5184;51.376;7.148;2023-02-15T05:35:55;39.47;;;22.53;;
10277;SDS011;5184;51.376;7.148;2023-02-15T05:38:23;38.30;;;23.13;;
10277;SDS011;5184;51.376;7.148;2023-02-15T05:40:51;37.40;;;22.43;;
10277;SDS011;5184;51.376;7.148;2023-02-15T05:43:18;37.40;;;22.17;;
10277;SDS011;5184;51.376;7.148;2023-02-15T05:45:46;36.23;;;22.40;;
10277;SDS011;5184;51.376;7.148;2023-02-15T05:48:12;40.13;;;23.70;;
10277;SDS011;5184;51.376;7.148;2023-02-15T05:50:39;38.97;;;22.50;;
10277;SDS011;5184;51.376;7.148;2023-02-15T05:53:05;38.73;;;23.67;;
10277;SDS011;5184;51.376;7.148;2023-02-15T05:55:32;33.03;;;20.80;;
10277;SDS011;5184;51.376;7.148;2023-02-15T05:57:59;37.93;;;23.07;;
10277;SDS011;5184;51.376;7.148;2023-02-15T06:00:25;39.00;;;22.50;;
10277;SDS011;5184;51.376;7.148;2023-02-15T06:02:52;39.77;;;22.53;;
10277;SDS011;5184;51.376;7.148;2023-02-15T06:05:20;38.37;;;23.20;;
10277;SDS011;5184;51.376;7.148;2023-02-15T06:07:48;37.10;;;22.07;;
10277;SDS011;5184;51.376;7.148;2023-02-15T06:10:14;36.60;;;22.33;;
10277;SDS011;5184;51.376;7.148;2023-02-15T06:12:41;39.80;;;23.37;;
10277;SDS011;5184;51.376;7.148;2023-02-15T06:15:08;40.33;;;23.17;;
10277;SDS011;5184;51.376;7.148;2023-02-15T06:17:35;35.13;;;21.80;;
10277;SDS011;5184;51.376;7.148;2023-02-15T06:20:03;42.73;;;23.23;;
10277;SDS011;5184;51.376;7.148;2023-02-15T06:22:31;39.17;;;22.77;;
10277;SDS011;5184;51.376;7.148;2023-02-15T06:24:58;39.07;;;23.37;;
10277;SDS011;5184;51.376;7.148;2023-02-15T06:27:25;36.77;;;22.53;;
10277;SDS011;5184;51.376;7.148;2023-02-15T06:29:51;38.60;;;23.17;;
10277;SDS011;5184;51.376;7.148;2023-02-15T06:32:18;42.63;;;24.00;;
10277;SDS011;5184;51.376;7.148;2023-02-15T06:34:44;38.07;;;23.33;;
10277;SDS011;5184;51.376;7.148;2023-02-15T06:37:11;41.57;;;24.17;;
10277;SDS011;5184;51.376;7.148;2023-02-15T06:39:38;41.27;;;23.73;;
10277;SDS011;5184;51.376;7.148;2023-02-15T06:42:05;44.17;;;25.33;;
10277;SDS011;5184;51.376;7.148;2023-02-15T06:44:31;41.77;;;23.37;;
10277;SDS011;5184;51.376;7.148;2023-02-15T06:46:58;41.87;;;22.97;;
10277;SDS011;5184;51.376;7.148;2023-02-15T06:49:24;40.93;;;23.40;;
10277;SDS011;5184;51.376;7.148;2023-02-15T06:51:51;39.53;;;22.80;;
10277;SDS011;5184;51.376;7.148;2023-02-15T06:54:18;43.17;;;23.67;;
10277;SDS011;5184;51.376;7.148;2023-02-15T06:56:46;43.03;;;23.77;;
10277;SDS011;5184;51.376;7.148;2023-02-15T06:59:13;41.10;;;24.00;;
10277;SDS011;5184;51.376;7.148;2023-02-15T07:01:40;40.07;;;22.67;;
10277;SDS011;5184;51.376;7.148;2023-02-15T07:04:06;40.60;;;23.67;;
10277;SDS011;5184;51.376;7.148;2023-02-15T07:06:33;37.10;;;22.30;;
10277;SDS011;5184;51.376;7.148;2023-02-15T07:09:00;38.67;;;22.87;;
10277;SDS011;5184;51.376;7.148;2023-02-15T07:11:26;36.00;;;21.63;;
10277;SDS011;5184;51.376;7.148;2023-02-15T07:13:59;42.60;;;23.43;;
10277;SDS011;5184;51.376;7.148;2023-02-15T07:16:26;37.30;;;23.07;;
10277;SDS011;5184;51.376;7.148;2023-02-15T07:18:53;37.40;;;22.27;;
10277;SDS011;5184;51.376;7.148;2023-02-15T07:21:21;37.77;;;22.23;;
10277;SDS011;5184;51.376;7.148;2023-02-15T07:23:47;34.93;;;21.53;;
10277;SDS011;5184;51.376;7.148;2023-02-15T07:26:14;33.23;;;21.97;;
10277;SDS011;5184;51.376;7.148;2023-02-15T07:28:41;32.40;;;21.57;;
10277;SDS011;5184;51.376;7.148;2023-02-15T07:31:07;41.03;;;21.93;;
10277;SDS011;5184;51.376;7.148;2023-02-15T07:33:34;36.47;;;21.33;;
10277;SDS011;5184;51.376;7.148;2023-02-15T07:36:02;39.27;;;22.53;;
10277;SDS011;5184;51.376;7.148;2023-02-15T07:38:30;36.33;;;21.87;;
10277;SDS011;5184;51.376;7.148;2023-02-15T07:40:58;40.23;;;21.87;;
10277;SDS011;5184;51.376;7.148;2023-02-15T07:43:25;37.37;;;22.07;;
10277;SDS011;5184;51.376;7.148;2023-02-15T07:45:52;38.53;;;22.93;;
10277;SDS011;5184;51.376;7.148;2023-02-15T07:48:18;40.57;;;23.47;;
10277;SDS011;5184;51.376;7.148;2023-02-15T07:50:45;35.90;;;22.83;;
10277;SDS011;5184;51.376;7.148;2023-02-15T07:53:11;39.20;;;22.57;;
10277;SDS011;5184;51.376;7.148;2023-02-15T07:55:39;35.57;;;21.63;;
10277;SDS011;5184;51.376;7.148;2023-02-15T07:58:06;37.10;;;20.63;;
10277;SDS011;5184;51.376;7.148;2023-02-15T08:00:34;35.20;;;20.97;;
10277;SDS011;5184;51.376;7.148;2023-02-15T08:03:00;39.70;;;21.87;;
10277;SDS011;5184;51.376;7.148;2023-02-15T08:05:32;34.43;;;21.07;;
10277;SDS011;5184;51.376;7.148;2023-02-15T08:08:00;34.50;;;21.23;;
10277;SDS011;5184;51.376;7.148;2023-02-15T08:10:27;35.83;;;20.03;;
10277;SDS011;5184;51.376;7.148;2023-02-15T08:13:00;36.77;;;20.93;;
10277;SDS011;5184;51.376;7.148;2023-02-15T08:15:27;38.77;;;23.03;;
10277;SDS011;5184;51.376;7.148;2023-02-15T08:17:54;35.10;;;21.10;;
10277;SDS011;5184;51.376;7.148;2023-02-15T08:20:22;41.47;;;22.40;;
10277;SDS011;5184;51.376;7.148;2023-02-15T08:22:48;33.40;;;19.97;;
10277;SDS011;5184;51.376;7.148;2023-02-15T08:25:15;34.23;;;20.17;;
10277;SDS011;5184;51.376;7.148;2023-02-15T08:27:42;30.00;;;19.87;;
10277;SDS011;5184;51.376;7.148;2023-02-15T08:30:09;32.07;;;20.37;;
10277;SDS011;5184;51.376;7.148;2023-02-15T08:32:36;38.53;;;22.17;;
10277;SDS011;5184;51.376;7.148;2023-02-15T08:35:04;34.27;;;21.80;;
10277;SDS011;5184;51.376;7.148;2023-02-15T08:37:31;30.83;;;17.50;;
10277;SDS011;5184;51.376;7.148;2023-02-15T08:39:57;39.63;;;23.77;;
10277;SDS011;5184;51.376;7.148;2023-02-15T08:42:24;34.90;;;22.83;;
10277;SDS011;5184;51.376;7.148;2023-02-15T08:44:51;37.67;;;20.30;;
10277;SDS011;5184;51.376;7.148;2023-02-15T08:47:18;37.93;;;21.97;;
10277;SDS011;5184;51.376;7.148;2023-02-15T08:49:45;38.60;;;22.98;;
10277;SDS011;5184;51.376;7.148;2023-02-15T08:52:11;32.83;;;21.60;;
10277;SDS011;5184;51.376;7.148;2023-02-15T08:54:38;32.47;;;21.10;;
10277;SDS011;5184;51.376;7.148;2023-02-15T08:57:05;32.67;;;21.07;;
10277;SDS011;5184;51.376;7.148;2023-02-15T08:59:31;31.17;;;19.57;;
10277;SDS011;5184;51.376;7.148;2023-02-15T09:01:58;28.33;;;19.80;;
10277;SDS011;5184;51.376;7.148;2023-02-15T09:04:25;29.37;;;19.77;;
10277;SDS011;5184;51.376;7.148;2023-02-15T09:06:52;28.17;;;18.87;;
10277;SDS011;5184;51.376;7.148;2023-02-15T09:09:19;28.60;;;19.47;;
10277;SDS011;5184;51.376;7.148;2023-02-15T09:11:49;30.93;;;19.27;;
10277;SDS011;5184;51.376;7.148;2023-02-15T09:14:16;32.93;;;19.03;;
10277;SDS011;5184;51.376;7.148;2023-02-15T09:16:44;28.50;;;18.13;;
10277;SDS011;5184;51.376;7.148;2023-02-15T09:19:10;28.10;;;19.17;;
10277;SDS011;5184;51.376;7.148;2023-02-15T09:21:37;28.57;;;18.80;;
10277;SDS011;5184;51.376;7.148;2023-02-15T09:24:04;29.27;;;19.03;;
10277;SDS011;5184;51.376;7.148;2023-02-15T09:26:31;25.23;;;17.00;;
10277;SDS011;5184;51.376;7.148;2023-02-15T09:28:58;26.77;;;17.97;;
10277;SDS011;5184;51.376;7.148;2023-02-15T09:31:25;27.40;;;18.13;;
10277;SDS011;5184;51.376;7.148;2023-02-15T09:33:51;28.13;;;17.67;;
10277;SDS011;5184;51.376;7.148;2023-02-15T09:36:20;28.07;;;17.57;;
10277;SDS011;5184;51.376;7.148;2023-02-15T09:38:47;27.77;;;17.40;;
10277;SDS011;5184;51.376;7.148;2023-02-15T09:44:04;22.93;;;16.27;;
10277;SDS011;5184;51.376;7.148;2023-02-15T09:47:09;23.97;;;15.80;;
10277;SDS011;5184;51.376;7.148;2023-02-15T09:49:23;23.67;;;15.40;;
10277;SDS011;5184;51.376;7.148;2023-02-15T09:55:00;22.37;;;14.60;;
10277;SDS011;5184;51.376;7.148;2023-02-15T09:57:43;22.43;;;13.83;;
10277;SDS011;5184;51.376;7.148;2023-02-15T10:00:18;20.37;;;13.70;;
10277;SDS011;5184;51.376;7.148;2023-02-15T10:02:50;20.53;;;13.93;;
10277;SDS011;5184;51.376;7.148;2023-02-15T10:05:21;20.90;;;14.13;;
10277;SDS011;5184;51.376;7.148;2023-02-15T10:08:01;20.23;;;12.40;;
10277;SDS011;5184;51.376;7.148;2023-02-15T10:10:42;17.70;;;11.93;;
10277;SDS011;5184;51.376;7.148;2023-02-15T10:15:53;18.43;;;12.27;;
10277;SDS011;5184;51.376;7.148;2023-02-15T10:18:23;19.07;;;13.37;;
10277;SDS011;5184;51.376;7.148;2023-02-15T10:23:26;19.27;;;12.27;;
10277;SDS011;5184;51.376;7.148;2023-02-15T10:25:56;18.67;;;13.23;;
10277;SDS011;5184;51.376;7.148;2023-02-15T10:28:27;18.53;;;12.83;;
10277;SDS011;5184;51.376;7.148;2023-02-15T10:30:56;20.77;;;12.87;;
10277;SDS011;5184;51.376;7.148;2023-02-15T10:36:02;21.37;;;13.43;;
10277;SDS011;5184;51.376;7.148;2023-02-15T10:38:40;23.10;;;13.57;;
10277;SDS011;5184;51.376;7.148;2023-02-15T10:41:17;17.13;;;12.20;;
10277;SDS011;5184;51.376;7.148;2023-02-15T10:43:48;18.23;;;12.83;;
10277;SDS011;5184;51.376;7.148;2023-02-15T10:46:36;16.30;;;11.00;;
10277;SDS011;5184;51.376;7.148;2023-02-15T10:49:20;15.10;;;10.93;;
10277;SDS011;5184;51.376;7.148;2023-02-15T10:51:55;16.97;;;11.30;;
10277;SDS011;5184;51.376;7.148;2023-02-15T10:54:26;14.80;;;11.30;;
10277;SDS011;5184;51.376;7.148;2023-02-15T10:59:47;14.03;;;10.10;;
10277;SDS011;5184;51.376;7.148;2023-02-15T11:02:25;13.77;;;9.70;;
10277;SDS011;5184;51.376;7.148;2023-02-15T11:05:02;14.60;;;;;
10277;SDS011;5184;51.376;7.148;2023-02-15T11:07:44;13.90;;;9.33;;
10277;SDS011;5184;51.376;7.148;2023-02-15T11:10:19;13.63;;;9.10;;
10277;SDS011;5184;51.376;7.148;2023-02-15T11:12:56;13.60;;;9.77;;
10277;SDS011;5184;51.376;7.148;2023-02-15T11:15:57;13.80;;;9.67;;
10277;SDS011;5184;51.376;7.148;2023-02-15T11:18:09;13.63;;;9.43;;
10277;SDS011;5184;51.376;7.148;2023-02-15T11:20:37;13.70;;;9.47;;
10277;SDS011;5184;51.376;7.148;2023-02-15T11:23:06;13.53;;;9.23;;
10277;SDS011;5184;51.376;7.148;2023-02-15T11:25:30;13.00;;;9.07;;
10277;SDS011;5184;51.376;7.148;2023-02-15T11:27:56;13.00;;;8.60;;
10277;SDS011;5184;51.376;7.148;2023-02-15T11:30:24;12.50;;;9.00;;
10277;SDS011;5184;51.376;7.148;2023-02-15T11:32:52;14.23;;;8.77;;
10277;SDS011;5184;51.376;7.148;2023-02-15T11:35:20;13.30;;;9.10;;
10277;SDS011;5184;51.376;7.148;2023-02-15T11:37:48;14.90;;;9.50;;
10277;SDS011;5184;51.376;7.148;2023-02-15T11:40:17;13.07;;;8.87;;
10277;SDS011;5184;51.376;7.148;2023-02-15T11:42:47;15.53;;;10.83;;
10277;SDS011;5184;51.376;7.148;2023-02-15T11:45:19;13.50;;;9.10;;
10277;SDS011;5184;51.376;7.148;2023-02-15T11:47:43;12.90;;;8.93;;
10277;SDS011;5184;51.376;7.148;2023-02-15T11:50:13;14.40;;;8.73;;
10277;SDS011;5184;51.376;7.148;2023-02-15T11:52:37;11.47;;;8.73;;
10277;SDS011;5184;51.376;7.148;2023-02-15T11:55:09;13.13;;;9.20;;
10277;SDS011;5184;51.376;7.148;2023-02-15T11:57:33;11.83;;;8.10;;
10277;SDS011;5184;51.376;7.148;2023-02-15T12:00:02;14.67;;;8.53;;
10277;SDS011;5184;51.376;7.148;2023-02-15T12:02:46;13.00;;;8.73;;
10277;SDS011;5184;51.376;7.148;2023-02-15T12:05:13;14.40;;;8.67;;
10277;SDS011;5184;51.376;7.148;2023-02-15T12:07:42;12.93;;;8.30;;
10277;SDS011;5184;51.376;7.148;2023-02-15T12:10:28;13.33;;;8.97;;
10277;SDS011;5184;51.376;7.148;2023-02-15T12:13:09;11.57;;;7.70;;
10277;SDS011;5184;51.376;7.148;2023-02-15T12:15:36;11.10;;;8.07;;
10277;SDS011;5184;51.376;7.148;2023-02-15T12:18:02;14.30;;;8.90;;
10277;SDS011;5184;51.376;7.148;2023-02-15T12:20:30;14.53;;;9.57;;
10277;SDS011;5184;51.376;7.148;2023-02-15T12:23:00;14.43;;;9.37;;
10277;SDS011;5184;51.376;7.148;2023-02-15T12:25:33;15.00;;;9.37;;
10277;SDS011;5184;51.376;7.148;2023-02-15T12:28:03;12.97;;;8.80;;
10277;SDS011;5184;51.376;7.148;2023-02-15T12:30:30;11.43;;;8.03;;
10277;SDS011;5184;51.376;7.148;2023-02-15T12:32:58;13.80;;;8.87;;
10277;SDS011;5184;51.376;7.148;2023-02-15T12:35:31;12.87;;;9.23;;
10277;SDS011;5184;51.376;7.148;2023-02-15T12:38:03;13.53;;;9.07;;
10277;SDS011;5184;51.376;7.148;2023-02-15T12:40:32;14.37;;;8.80;;
10277;SDS011;5184;51.376;7.148;2023-02-15T12:42:57;11.73;;;8.77;;
10277;SDS011;5184;51.376;7.148;2023-02-15T12:45:32;14.93;;;9.00;;
10277;SDS011;5184;51.376;7.148;2023-02-15T12:50:48;11.67;;;8.70;;
10277;SDS011;5184;51.376;7.148;2023-02-15T12:53:17;11.93;;;9.00;;
10277;SDS011;5184;51.376;7.148;2023-02-15T12:55:53;13.67;;;9.27;;
10277;SDS011;5184;51.376;7.148;2023-02-15T12:58:21;13.60;;;9.20;;
10277;SDS011;5184;51.376;7.148;2023-02-15T13:00:48;15.67;;;9.67;;
10277;SDS011;5184;51.376;7.148;2023-02-15T13:03:16;15.57;;;8.73;;
10277;SDS011;5184;51.376;7.148;2023-02-15T13:05:44;12.83;;;9.07;;
10277;SDS011;5184;51.376;7.148;2023-02-15T13:08:12;11.63;;;8.50;;
10277;SDS011;5184;51.376;7.148;2023-02-15T13:10:43;13.13;;;8.90;;
10277;SDS011;5184;51.376;7.148;2023-02-15T13:13:10;11.67;;;8.80;;
10277;SDS011;5184;51.376;7.148;2023-02-15T13:15:37;16.33;;;9.73;;
10277;SDS011;5184;51.376;7.148;2023-02-15T13:18:09;12.77;;;9.10;;
10277;SDS011;5184;51.376;7.148;2023-02-15T13:20:32;14.97;;;9.27;;
10277;SDS011;5184;51.376;7.148;2023-02-15T13:23:00;14.43;;;9.27;;
10277;SDS011;5184;51.376;7.148;2023-02-15T13:25:29;15.50;;;9.67;;
10277;SDS011;5184;51.376;7.148;2023-02-15T13:27:56;16.03;;;9.97;;
10277;SDS011;5184;51.376;7.148;2023-02-15T13:30:24;14.37;;;9.17;;
10277;SDS011;5184;51.376;7.148;2023-02-15T13:32:49;16.03;;;8.93;;
10277;SDS011;5184;51.376;7.148;2023-02-15T13:35:16;15.07;;;9.70;;
10277;SDS011;5184;51.376;7.148;2023-02-15T13:37:51;16.47;;;9.43;;
10277;SDS011;5184;51.376;7.148;2023-02-15T13:40:37;15.73;;;9.67;;
10277;SDS011;5184;51.376;7.148;2023-02-15T13:43:05;13.40;;;9.43;;
10277;SDS011;5184;51.376;7.148;2023-02-15T13:45:50;15.77;;;10.13;;
10277;SDS011;5184;51.376;7.148;2023-02-15T13:48:44;13.10;;;9.53;;
10277;SDS011;5184;51.376;7.148;2023-02-15T13:51:13;15.63;;;9.80;;
10277;SDS011;5184;51.376;7.148;2023-02-15T13:54:23;15.93;;;9.97;;
10277;SDS011;5184;51.376;7.148;2023-02-15T13:56:40;15.47;;;10.40;;
10277;SDS011;5184;51.376;7.148;2023-02-15T13:59:41;13.23;;;9.20;;
10277;SDS011;5184;51.376;7.148;2023-02-15T14:02:46;14.27;;;9.90;;
10277;SDS011;5184;51.376;7.148;2023-02-15T14:05:17;14.30;;;9.80;;
10277;SDS011;5184;51.376;7.148;2023-02-15T14:10:40;15.83;;;10.27;;
10277;SDS011;5184;51.376;7.148;2023-02-15T14:15:43;15.77;;;10.00;;
10277;SDS011;5184;51.376;7.148;2023-02-15T14:18:51;14.40;;;9.50;;
10277;SDS011;5184;51.376;7.148;2023-02-15T14:21:05;14.23;;;9.47;;
10277;SDS011;5184;51.376;7.148;2023-02-15T14:23:49;12.77;;;9.53;;
10277;SDS011;5184;51.376;7.148;2023-02-15T14:26:34;17.13;;;10.50;;
10277;SDS011;5184;51.376;7.148;2023-02-15T14:29:10;15.27;;;10.33;;
10277;SDS011;5184;51.376;7.148;2023-02-15T14:31:41;14.07;;;9.60;;
10277;SDS011;5184;51.376;7.148;2023-02-15T14:34:07;14.17;;;9.57;;
10277;SDS011;5184;51.376;7.148;2023-02-15T14:36:34;14.70;;;9.77;;
10277;SDS011;5184;51.376;7.148;2023-02-15T14:39:08;13.50;;;9.80;;
10277;SDS011;5184;51.376;7.148;2023-02-15T14:41:43;14.27;;;9.30;;
10277;SDS011;5184;51.376;7.148;2023-02-15T14:44:13;14.30;;;9.90;;
10277;SDS011;5184;51.376;7.148;2023-02-15T14:49:25;13.20;;;9.53;;
10277;SDS011;5184;51.376;7.148;2023-02-15T14:51:53;17.83;;;10.13;;
10277;SDS011;5184;51.376;7.148;2023-02-15T14:57:21;15.43;;;9.63;;
10277;SDS011;5184;51.376;7.148;2023-02-15T14:59:58;15.87;;;9.73;;
10277;SDS011;5184;51.376;7.148;2023-02-15T15:02:27;14.03;;;9.17;;
10277;SDS011;5184;51.376;7.148;2023-02-15T15:04:59;13.23;;;9.23;;
10277;SDS011;5184;51.376;7.148;2023-02-15T15:07:45;12.97;;;9.00;;
10277;SDS011;5184;51.376;7.148;2023-02-15T15:12:58;11.63;;;8.40;;
10277;SDS011;5184;51.376;7.148;2023-02-15T15:15:34;11.93;;;8.37;;
10277;SDS011;5184;51.376;7.148;2023-02-15T15:18:09;13.80;;;9.17;;
10277;SDS011;5184;51.376;7.148;2023-02-15T15:20:38;14.47;;;9.43;;
10277;SDS011;5184;51.376;7.148;2023-02-15T15:25:56;10.67;;;8.13;;
10277;SDS011;5184;51.376;7.148;2023-02-15T15:31:18;12.47;;;7.23;;
10277;SDS011;5184;51.376;7.148;2023-02-15T15:34:07;13.60;;;8.20;;
10277;SDS011;5184;51.376;7.148;2023-02-15T15:36:44;12.80;;;8.60;;
10277;SDS011;5184;51.376;7.148;2023-02-15T15:39:32;14.87;;;8.33;;
10277;SDS011;5184;51.376;7.148;2023-02-15T15:42:04;12.30;;;8.63;;